createdAt,value
2023-03-22T00:00:44.524Z,56.06
2023-03-22T00:01:44.448Z,54.31
2023-03-22T00:02:44.564Z,59.06
2023-03-22T00:03:44.501Z,49.55
2023-03-22T00:04:44.612Z,57.30
2023-03-22T00:05:44.435Z,50.23
2023-03-22T00:06:44.460Z,54.07
2023-03-22T00:07:44.466Z,58.13
2023-03-22T00:08:44.395Z,48.77
2023-03-22T00:09:44.451Z,40.94
2023-03-22T00:10:44.390Z,49.48
2023-03-22T00:11:44.518Z,54.14
2023-03-22T00:12:44.387Z,56.82
2023-03-22T00:13:44.385Z,53.49
2023-03-22T00:14:44.416Z,53.12
2023-03-22T00:15:44.390Z,56.88
2023-03-22T00:16:44.370Z,44.64
2023-03-22T00:17:44.360Z,51.21
2023-03-22T00:18:44.388Z,56.05
2023-03-22T00:19:44.330Z,51.05
2023-03-22T00:20:44.333Z,48.81
2023-03-22T00:21:44.315Z,41.07
2023-03-22T00:22:44.298Z,51.32
2023-03-22T00:23:44.323Z,55.89
2023-03-22T00:24:44.265Z,55.91
2023-03-22T00:25:45.060Z,47.95
2023-03-22T00:26:44.236Z,48.69
2023-03-22T00:27:44.271Z,35.75
2023-03-22T00:28:44.212Z,50.88
2023-03-22T00:29:44.252Z,51.64
2023-03-22T00:30:44.213Z,42.20
2023-03-22T00:31:44.201Z,38.14
2023-03-22T00:32:44.225Z,52.07
2023-03-22T00:33:44.231Z,47.72
2023-03-22T00:34:44.253Z,48.79
2023-03-22T00:35:44.165Z,40.15
2023-03-22T00:36:44.164Z,38.43
2023-03-22T00:37:44.177Z,52.35
2023-03-22T00:38:44.726Z,62.40
2023-03-22T00:39:45.140Z,56.00
2023-03-22T00:40:44.139Z,48.59
2023-03-22T00:41:44.128Z,55.61
2023-03-22T00:42:44.133Z,48.36
2023-03-22T00:43:44.093Z,56.93
2023-03-22T00:44:44.064Z,56.04
2023-03-22T00:45:44.132Z,56.06
2023-03-22T00:46:44.095Z,48.85
2023-03-22T00:47:44.108Z,56.11
2023-03-22T00:48:44.083Z,52.34
2023-03-22T00:49:44.014Z,40.45
2023-03-22T00:50:44.034Z,51.70
2023-03-22T00:51:44.004Z,52.25
2023-03-22T00:52:43.972Z,52.55
2023-03-22T00:53:44.081Z,36.20
2023-03-22T00:54:44.005Z,43.42
2023-03-22T00:55:43.982Z,47.61
2023-03-22T00:56:43.946Z,43.39
2023-03-22T00:57:43.939Z,47.97
2023-03-22T00:58:43.929Z,44.34
2023-03-22T00:59:43.971Z,53.43
2023-03-22T01:00:44.049Z,40.45
2023-03-22T01:01:43.909Z,54.41
2023-03-22T01:02:43.956Z,50.86
2023-03-22T01:03:44.036Z,51.50
2023-03-22T01:04:43.913Z,44.54
2023-03-22T01:05:43.922Z,46.35
2023-03-22T01:06:43.914Z,44.18
2023-03-22T01:07:43.942Z,45.23
2023-03-22T01:08:43.872Z,54.56
2023-03-22T01:09:43.842Z,51.21
2023-03-22T01:10:43.920Z,55.62
2023-03-22T01:11:43.820Z,56.43
2023-03-22T01:12:43.816Z,57.92
2023-03-22T01:13:43.821Z,53.85
2023-03-22T01:14:43.845Z,46.10
2023-03-22T01:15:43.763Z,48.89
2023-03-22T01:16:43.824Z,52.45
2023-03-22T01:17:43.766Z,55.63
2023-03-22T01:18:43.741Z,49.63
2023-03-22T01:19:43.739Z,55.07
2023-03-22T01:20:43.688Z,47.17
2023-03-22T01:21:43.740Z,44.99
2023-03-22T01:22:43.706Z,49.73
2023-03-22T01:23:43.698Z,54.24
2023-03-22T01:24:43.694Z,60.21
2023-03-22T01:25:43.715Z,53.37
2023-03-22T01:26:43.698Z,47.47
2023-03-22T01:27:43.685Z,52.90
2023-03-22T01:28:43.671Z,56.49
2023-03-22T01:29:43.623Z,55.10
2023-03-22T01:30:43.701Z,60.41
2023-03-22T01:31:43.621Z,53.78
2023-03-22T01:32:43.587Z,48.13
2023-03-22T01:33:43.582Z,45.82
2023-03-22T01:34:43.594Z,46.15
2023-03-22T01:35:43.657Z,50.83
2023-03-22T01:36:43.571Z,56.80
2023-03-22T01:37:43.607Z,52.73
2023-03-22T01:38:43.506Z,55.14
2023-03-22T01:39:43.544Z,48.79
2023-03-22T01:40:43.539Z,50.15
2023-03-22T01:41:43.538Z,48.56
2023-03-22T01:42:44.055Z,52.58
2023-03-22T01:43:43.514Z,54.99
2023-03-22T01:44:43.488Z,52.49
2023-03-22T01:45:43.512Z,54.54
2023-03-22T01:46:43.460Z,50.55
2023-03-22T01:47:43.509Z,55.90
2023-03-22T01:48:43.464Z,55.51
2023-03-22T01:49:44.070Z,52.64
2023-03-22T01:50:43.498Z,52.64
2023-03-22T01:51:43.941Z,34.21
2023-03-22T01:52:44.395Z,35.76
2023-03-22T01:53:43.383Z,57.54
2023-03-22T01:54:43.400Z,58.65
2023-03-22T01:55:43.409Z,52.49
2023-03-22T01:56:43.425Z,53.66
2023-03-22T01:57:43.360Z,42.51
2023-03-22T01:58:43.358Z,47.45
2023-03-22T01:59:43.351Z,52.35
2023-03-22T02:00:43.335Z,51.11
2023-03-22T02:01:43.399Z,52.63
2023-03-22T02:02:43.319Z,56.26
2023-03-22T02:03:44.120Z,53.71
2023-03-22T02:04:43.267Z,51.86
2023-03-22T02:05:43.388Z,44.83
2023-03-22T02:06:44.286Z,52.49
2023-03-22T02:07:43.276Z,54.14
2023-03-22T02:08:43.280Z,50.98
2023-03-22T02:09:43.250Z,57.97
2023-03-22T02:10:43.348Z,58.02
2023-03-22T02:11:43.241Z,56.22
2023-03-22T02:12:43.211Z,49.62
2023-03-22T02:13:43.209Z,56.23
2023-03-22T02:14:43.176Z,55.80
2023-03-22T02:15:43.230Z,44.03
2023-03-22T02:16:43.168Z,51.63
2023-03-22T02:17:44.063Z,52.60
2023-03-22T02:18:43.202Z,56.46
2023-03-22T02:19:43.180Z,52.48
2023-03-22T02:20:43.176Z,47.41
2023-03-22T02:21:43.133Z,52.45
2023-03-22T02:22:43.098Z,51.50
2023-03-22T02:23:43.113Z,58.03
2023-03-22T02:24:43.995Z,58.47
2023-03-22T02:25:44.103Z,57.39
2023-03-22T02:26:43.197Z,48.86
2023-03-22T02:27:43.042Z,56.50
2023-03-22T02:28:43.065Z,58.74
2023-03-22T02:29:43.087Z,57.55
2023-03-22T02:30:43.049Z,57.71
2023-03-22T02:31:43.059Z,52.00
2023-03-22T02:32:43.014Z,53.27
2023-03-22T02:33:43.240Z,49.58
2023-03-22T02:34:42.989Z,43.12
2023-03-22T02:35:43.044Z,51.63
2023-03-22T02:36:42.957Z,50.42
2023-03-22T02:37:42.986Z,49.39
2023-03-22T02:38:42.976Z,61.70
2023-03-22T02:39:42.937Z,55.64
2023-03-22T02:40:43.136Z,43.28
2023-03-22T02:41:42.930Z,49.34
2023-03-22T02:42:42.893Z,54.75
2023-03-22T02:43:42.915Z,58.96
2023-03-22T02:44:42.933Z,52.81
2023-03-22T02:45:42.979Z,47.34
2023-03-22T02:46:42.956Z,44.27
2023-03-22T02:47:42.960Z,55.90
2023-03-22T02:48:42.836Z,53.01
2023-03-22T02:49:42.840Z,57.86
2023-03-22T02:50:42.846Z,50.84
2023-03-22T02:51:42.822Z,58.52
2023-03-22T02:52:42.869Z,48.22
2023-03-22T02:53:42.809Z,53.47
2023-03-22T02:54:44.586Z,54.43
2023-03-22T02:55:43.814Z,53.68
2023-03-22T02:56:42.798Z,51.11
2023-03-22T02:57:42.787Z,57.59
2023-03-22T02:58:42.779Z,51.13
2023-03-22T02:59:42.713Z,46.00
2023-03-22T03:00:43.011Z,52.25
2023-03-22T03:01:42.811Z,49.45
2023-03-22T03:02:42.690Z,50.46
2023-03-22T03:03:42.702Z,55.53
2023-03-22T03:04:42.711Z,51.80
2023-03-22T03:05:42.711Z,41.40
2023-03-22T03:06:42.648Z,56.16
2023-03-22T03:07:42.668Z,46.75
2023-03-22T03:08:42.693Z,50.14
2023-03-22T03:09:42.650Z,46.00
2023-03-22T03:10:42.656Z,49.67
2023-03-22T03:11:42.622Z,49.56
2023-03-22T03:12:42.640Z,52.55
2023-03-22T03:13:42.589Z,54.70
2023-03-22T03:14:42.595Z,56.77
2023-03-22T03:15:42.609Z,52.06
2023-03-22T03:16:42.600Z,55.13
2023-03-22T03:17:42.558Z,54.42
2023-03-22T03:18:42.589Z,57.61
2023-03-22T03:19:42.587Z,52.57
2023-03-22T03:20:42.582Z,58.05
2023-03-22T03:21:42.523Z,57.88
2023-03-22T03:22:42.514Z,56.84
2023-03-22T03:23:42.515Z,47.87
2023-03-22T03:24:42.508Z,55.02
2023-03-22T03:25:42.545Z,56.67
2023-03-22T03:26:42.477Z,54.40
2023-03-22T03:27:42.494Z,48.01
2023-03-22T03:28:42.441Z,47.12
2023-03-22T03:29:42.444Z,52.75
2023-03-22T03:30:42.450Z,49.97
2023-03-22T03:31:42.563Z,55.17
2023-03-22T03:32:42.438Z,52.08
2023-03-22T03:33:42.381Z,49.18
2023-03-22T03:34:42.374Z,51.71
2023-03-22T03:35:42.428Z,49.77
2023-03-22T03:36:42.922Z,54.30
2023-03-22T03:37:42.353Z,53.60
2023-03-22T03:38:42.364Z,52.17
2023-03-22T03:39:42.333Z,48.29
2023-03-22T03:40:42.354Z,53.13
2023-03-22T03:41:42.359Z,54.30
2023-03-22T03:42:42.323Z,55.76
2023-03-22T03:43:42.408Z,60.56
2023-03-22T03:44:42.245Z,47.97
2023-03-22T03:45:42.379Z,52.82
2023-03-22T03:46:42.265Z,55.41
2023-03-22T03:47:42.308Z,60.65
2023-03-22T03:48:42.272Z,54.08
2023-03-22T03:49:42.265Z,57.73
2023-03-22T03:50:42.447Z,55.27
2023-03-22T03:51:42.212Z,52.88
2023-03-22T03:52:43.273Z,57.07
2023-03-22T03:53:43.230Z,58.52
2023-03-22T03:54:42.176Z,56.48
2023-03-22T03:55:42.230Z,57.82
2023-03-22T03:56:42.172Z,55.42
2023-03-22T03:57:42.179Z,60.38
2023-03-22T03:58:42.171Z,58.32
2023-03-22T03:59:42.182Z,59.47
2023-03-22T04:00:42.268Z,53.94
2023-03-22T04:01:42.123Z,55.46
2023-03-22T04:02:42.194Z,56.93
2023-03-22T04:03:42.129Z,57.88
2023-03-22T04:04:42.185Z,58.30
2023-03-22T04:05:42.093Z,52.37
2023-03-22T04:06:42.072Z,54.45
2023-03-22T04:07:42.109Z,54.16
2023-03-22T04:08:42.049Z,58.19
2023-03-22T04:09:42.140Z,56.89
2023-03-22T04:10:42.081Z,57.45
2023-03-22T04:11:42.026Z,53.50
2023-03-22T04:12:42.035Z,56.38
2023-03-22T04:13:42.026Z,58.05
2023-03-22T04:14:42.119Z,59.01
2023-03-22T04:15:41.991Z,57.31
2023-03-22T04:16:42.054Z,57.88
2023-03-22T04:17:42.014Z,57.46
2023-03-22T04:18:41.979Z,61.12
2023-03-22T04:19:41.972Z,59.05
2023-03-22T04:20:42.165Z,58.76
2023-03-22T04:21:41.982Z,58.82
2023-03-22T04:22:41.894Z,59.00
2023-03-22T04:23:41.928Z,56.52
2023-03-22T04:24:41.899Z,59.67
2023-03-22T04:25:41.951Z,58.70
2023-03-22T04:26:41.886Z,58.95
2023-03-22T04:27:41.861Z,59.95
2023-03-22T04:28:42.060Z,60.36
2023-03-22T04:29:41.864Z,61.72
2023-03-22T04:30:42.288Z,58.05
2023-03-22T04:31:41.835Z,61.47
2023-03-22T04:32:41.850Z,60.58
2023-03-22T04:33:41.803Z,60.54
2023-03-22T04:34:41.804Z,60.63
2023-03-22T04:35:42.669Z,60.82
2023-03-22T04:36:41.829Z,60.54
2023-03-22T04:37:41.826Z,61.19
2023-03-22T04:38:41.813Z,60.28
2023-03-22T04:39:41.766Z,60.42
2023-03-22T04:40:42.216Z,61.75
2023-03-22T04:41:41.760Z,59.18
2023-03-22T04:42:41.848Z,60.66
2023-03-22T04:43:41.691Z,60.38
2023-03-22T04:44:41.770Z,61.62
2023-03-22T04:45:41.827Z,59.15
2023-03-22T04:46:41.729Z,59.78
2023-03-22T04:47:41.743Z,62.77
2023-03-22T04:48:41.705Z,60.66
2023-03-22T04:49:41.706Z,59.90
2023-03-22T04:50:42.018Z,59.65
2023-03-22T04:51:41.703Z,61.75
2023-03-22T04:52:41.652Z,60.47
2023-03-22T04:53:41.651Z,62.80
2023-03-22T04:54:41.626Z,59.54
2023-03-22T04:55:41.642Z,58.64
2023-03-22T04:56:41.621Z,61.29
2023-03-22T04:57:41.611Z,62.65
2023-03-22T04:58:41.581Z,58.65
2023-03-22T04:59:41.584Z,63.03
2023-03-22T05:00:41.883Z,61.00
2023-03-22T05:01:41.622Z,62.50
2023-03-22T05:02:41.800Z,60.47
2023-03-22T05:03:41.513Z,59.86
2023-03-22T05:04:41.488Z,58.27
2023-03-22T05:05:41.492Z,60.57
2023-03-22T05:06:41.529Z,59.12
2023-03-22T05:07:41.502Z,58.64
2023-03-22T05:08:41.469Z,63.80
2023-03-22T05:09:41.448Z,60.30
2023-03-22T05:10:41.961Z,61.76
2023-03-22T05:11:41.484Z,60.96
2023-03-22T05:12:41.427Z,61.24
2023-03-22T05:13:41.427Z,61.35
2023-03-22T05:14:41.470Z,58.62
2023-03-22T05:15:41.452Z,60.06
2023-03-22T05:16:41.451Z,62.27
2023-03-22T05:17:41.431Z,62.37
2023-03-22T05:18:41.363Z,62.15
2023-03-22T05:19:41.394Z,60.52
2023-03-22T05:20:41.556Z,61.06
2023-03-22T05:21:41.400Z,61.07
2023-03-22T05:22:41.476Z,62.43
2023-03-22T05:23:41.318Z,61.44
2023-03-22T05:24:41.304Z,62.93
2023-03-22T05:25:41.272Z,60.00
2023-03-22T05:26:41.325Z,62.45
2023-03-22T05:27:41.289Z,62.33
2023-03-22T05:28:41.271Z,61.77
2023-03-22T05:29:41.290Z,62.87
2023-03-22T05:30:41.579Z,64.37
2023-03-22T05:31:41.307Z,63.06
2023-03-22T05:32:41.276Z,63.02
2023-03-22T05:33:41.249Z,61.07
2023-03-22T05:34:41.236Z,62.56
2023-03-22T05:35:41.244Z,61.75
2023-03-22T05:36:41.567Z,62.35
2023-03-22T05:37:41.240Z,63.58
2023-03-22T05:38:41.209Z,62.83
2023-03-22T05:39:41.169Z,61.28
2023-03-22T05:40:41.497Z,62.27
2023-03-22T05:41:41.154Z,64.33
2023-03-22T05:42:41.134Z,62.62
2023-03-22T05:43:41.209Z,63.90
2023-03-22T05:44:41.103Z,63.39
2023-03-22T05:45:41.193Z,63.26
2023-03-22T05:46:41.205Z,62.24
2023-03-22T05:47:41.116Z,64.39
2023-03-22T05:48:41.103Z,63.81
2023-03-22T05:49:41.071Z,61.79
2023-03-22T05:50:42.059Z,66.06
2023-03-22T05:51:41.090Z,62.74
2023-03-22T05:52:41.123Z,63.16
2023-03-22T05:53:41.066Z,62.59
2023-03-22T05:54:41.071Z,64.79
2023-03-22T05:55:41.030Z,63.95
2023-03-22T05:56:41.034Z,62.84
2023-03-22T05:57:41.542Z,63.27
2023-03-22T05:58:41.005Z,62.76
2023-03-22T05:59:40.945Z,62.54
2023-03-22T06:00:41.293Z,63.07
2023-03-22T06:01:41.006Z,64.30
2023-03-22T06:02:41.013Z,62.27
2023-03-22T06:03:40.952Z,61.77
2023-03-22T06:04:40.955Z,63.39
2023-03-22T06:05:40.900Z,63.31
2023-03-22T06:06:41.134Z,62.53
2023-03-22T06:07:40.873Z,63.80
2023-03-22T06:08:40.903Z,62.18
2023-03-22T06:09:40.868Z,62.38
2023-03-22T06:10:41.112Z,62.73
2023-03-22T06:11:40.858Z,63.88
2023-03-22T06:12:40.834Z,63.97
2023-03-22T06:13:40.834Z,63.41
2023-03-22T06:14:41.846Z,63.61
2023-03-22T06:15:40.932Z,61.82
2023-03-22T06:16:40.848Z,62.73
2023-03-22T06:17:40.805Z,62.27
2023-03-22T06:18:40.782Z,63.30
2023-03-22T06:33:36.000Z,62.74
2023-03-22T06:34:36.078Z,62.78
2023-03-22T06:35:36.070Z,63.81
2023-03-22T06:36:35.983Z,61.98
2023-03-22T06:37:35.959Z,65.92
2023-03-22T06:38:35.951Z,65.84
2023-03-22T06:39:37.244Z,64.81
2023-03-22T06:40:37.296Z,65.04
2023-03-22T06:41:37.160Z,63.92
2023-03-22T06:42:37.172Z,64.01
2023-03-22T06:43:37.194Z,62.13
2023-03-22T06:44:37.207Z,61.52
2023-03-22T06:45:37.039Z,64.40
2023-03-22T06:46:37.014Z,63.43
2023-03-22T06:47:37.027Z,62.62
2023-03-22T06:48:37.022Z,64.26
2023-03-22T06:49:37.018Z,62.58
2023-03-22T06:50:37.202Z,63.63
2023-03-22T06:51:36.965Z,63.65
2023-03-22T06:52:37.045Z,63.48
2023-03-22T06:53:38.017Z,63.16
2023-03-22T06:54:36.985Z,63.07
2023-03-22T06:55:36.928Z,64.18
2023-03-22T06:56:36.950Z,63.23
2023-03-22T06:57:36.909Z,61.80
2023-03-22T06:58:36.919Z,61.45
2023-03-22T06:59:37.020Z,62.76
2023-03-22T07:00:36.942Z,61.09
2023-03-22T07:01:36.962Z,61.10
2023-03-22T07:02:36.857Z,61.90
2023-03-22T07:03:36.843Z,61.30
2023-03-22T07:04:36.858Z,63.72
2023-03-22T07:05:36.839Z,62.89
2023-03-22T07:06:36.829Z,61.43
2023-03-22T07:07:36.921Z,60.34
2023-03-22T07:08:36.824Z,62.33
2023-03-22T07:09:36.856Z,59.69
2023-03-22T07:10:36.836Z,60.35
2023-03-22T07:11:36.809Z,62.55
2023-03-22T07:12:36.755Z,62.71
2023-03-22T07:13:36.749Z,63.37
2023-03-22T07:14:36.869Z,59.35
2023-03-22T07:15:36.769Z,62.49
2023-03-22T07:16:36.877Z,63.13
2023-03-22T07:17:36.734Z,62.61
2023-03-22T07:18:36.772Z,61.30
2023-03-22T07:19:36.844Z,62.55
2023-03-22T07:20:40.768Z,62.23
2023-03-22T07:21:36.770Z,61.59
2023-03-22T07:22:36.684Z,61.66
2023-03-22T07:23:36.720Z,60.70
2023-03-22T07:24:44.623Z,61.61
2023-03-22T07:25:38.908Z,63.68
2023-03-22T07:26:36.866Z,62.43
2023-03-22T07:27:36.950Z,60.19
2023-03-22T07:28:36.877Z,62.53
2023-03-22T07:29:36.638Z,60.56
2023-03-22T07:30:36.586Z,61.54
2023-03-22T07:31:36.620Z,59.95
2023-03-22T07:32:36.841Z,61.37
2023-03-22T07:33:37.630Z,60.41
2023-03-22T07:34:36.778Z,58.92
2023-03-22T07:35:36.533Z,61.52
2023-03-22T07:36:36.516Z,62.65
2023-03-22T07:37:36.551Z,62.17
2023-03-22T07:38:36.532Z,62.89
2023-03-22T07:42:54.837Z,61.60
2023-03-22T07:43:58.412Z,62.52
2023-03-22T07:44:54.294Z,62.59
2023-03-22T07:45:54.279Z,61.64
2023-03-22T07:50:11.701Z,62.41
2023-03-22T07:51:11.346Z,60.92
2023-03-22T07:52:11.452Z,61.57
2023-03-22T07:53:11.393Z,61.14
2023-03-22T07:57:30.303Z,61.83
2023-03-22T08:01:21.289Z,60.70
2023-03-22T08:02:21.485Z,62.10
2023-03-22T08:03:21.351Z,62.39
2023-03-22T08:04:21.390Z,61.21
2023-03-22T08:05:21.338Z,61.16
2023-03-22T08:06:21.210Z,63.44
2023-03-22T08:07:21.174Z,61.07
2023-03-22T08:08:21.165Z,61.19
2023-03-22T08:09:21.225Z,61.48
2023-03-22T08:10:21.450Z,59.65
2023-03-22T08:11:21.124Z,62.80
2023-03-22T08:12:21.176Z,60.88
2023-03-22T08:13:21.149Z,63.30
2023-03-22T08:14:30.766Z,63.71
2023-03-22T08:15:24.359Z,63.27
2023-03-22T08:16:22.492Z,61.85
2023-03-22T08:17:22.346Z,60.99
2023-03-22T08:18:22.233Z,61.91
2023-03-22T08:19:22.232Z,58.62
2023-03-22T08:20:22.368Z,62.23
2023-03-22T08:21:22.250Z,60.89
2023-03-22T08:22:22.263Z,62.09
2023-03-22T08:23:28.901Z,60.65
2023-03-22T08:24:24.258Z,60.70
2023-03-22T08:25:22.310Z,61.87
2023-03-22T08:26:22.452Z,59.71
2023-03-22T08:27:22.179Z,59.47
2023-03-22T08:28:22.182Z,60.79
2023-03-22T08:29:22.145Z,59.19
2023-03-22T08:30:22.157Z,59.42
2023-03-22T08:31:22.135Z,70.59
2023-03-22T08:32:22.174Z,60.10
2023-03-22T08:33:22.215Z,61.08
2023-03-22T08:34:22.194Z,59.15
2023-03-22T08:35:22.110Z,60.10
2023-03-22T08:36:22.069Z,61.09
2023-03-22T08:37:22.199Z,59.81
2023-03-22T08:38:22.068Z,61.29
2023-03-22T08:39:22.043Z,60.05
2023-03-22T08:40:22.040Z,60.41
2023-03-22T08:41:22.143Z,60.44
2023-03-22T08:42:22.033Z,60.37
2023-03-22T08:43:22.073Z,60.86
2023-03-22T08:44:22.063Z,61.51
2023-03-22T08:45:22.037Z,60.21
2023-03-22T08:46:21.975Z,58.90
2023-03-22T08:47:21.976Z,61.58
2023-03-22T08:48:21.984Z,62.11
2023-03-22T08:49:21.996Z,63.07
2023-03-22T08:50:21.978Z,60.54
2023-03-22T08:51:21.907Z,59.33
2023-03-22T08:52:22.049Z,60.21
2023-03-22T08:53:21.961Z,57.39
2023-03-22T08:54:21.911Z,60.96
2023-03-22T08:55:21.922Z,58.20
2023-03-22T08:56:21.903Z,59.46
2023-03-22T08:57:22.033Z,59.90
2023-03-22T08:58:22.001Z,59.08
2023-03-22T08:59:21.879Z,60.31
2023-03-22T09:00:21.878Z,61.06
2023-03-22T09:01:22.047Z,59.93
2023-03-22T09:02:22.003Z,56.56
2023-03-22T09:03:21.882Z,56.34
2023-03-22T09:04:22.882Z,61.62
2023-03-22T09:05:21.806Z,61.76
2023-03-22T09:06:21.796Z,58.08
2023-03-22T09:07:21.818Z,59.22
2023-03-22T09:08:21.826Z,62.76
2023-03-22T09:09:22.010Z,60.07
2023-03-22T09:10:21.718Z,59.61
2023-03-22T09:11:21.746Z,59.07
2023-03-22T09:12:21.725Z,61.32
2023-03-22T09:13:21.748Z,61.43
2023-03-22T09:14:21.750Z,61.55
2023-03-22T09:15:21.718Z,61.48
2023-03-22T09:16:21.781Z,62.97
2023-03-22T09:17:22.595Z,63.41
2023-03-22T09:18:22.658Z,62.78
2023-03-22T09:19:21.908Z,61.13
2023-03-22T09:20:21.717Z,62.73
2023-03-22T09:21:21.721Z,62.54
2023-03-22T09:22:21.653Z,60.74
2023-03-22T09:23:21.743Z,62.13
2023-03-22T09:24:21.706Z,61.26
2023-03-22T09:25:21.688Z,61.37
2023-03-22T09:26:21.583Z,62.73
2023-03-22T09:27:21.669Z,60.20
2023-03-22T09:28:21.650Z,60.86
2023-03-22T09:29:22.258Z,60.48
2023-03-22T09:30:21.544Z,62.42
2023-03-22T09:31:21.571Z,60.72
2023-03-22T09:32:21.580Z,62.51
2023-03-22T09:33:21.836Z,61.37
2023-03-22T09:34:21.512Z,60.17
2023-03-22T09:35:21.558Z,62.02
2023-03-22T09:36:21.480Z,61.40
2023-03-22T09:37:21.782Z,61.83
2023-03-22T09:38:21.733Z,61.84
2023-03-22T09:39:21.999Z,61.49
2023-03-22T09:40:21.538Z,60.74
2023-03-22T09:41:21.428Z,62.17
2023-03-22T09:42:21.475Z,61.05
2023-03-22T09:43:21.452Z,61.04
2023-03-22T09:44:21.636Z,60.28
2023-03-22T09:45:21.387Z,57.34
2023-03-22T09:46:22.392Z,59.74
2023-03-22T09:47:21.378Z,61.37
2023-03-22T09:48:21.427Z,60.71
2023-03-22T09:49:21.363Z,61.02
2023-03-22T09:50:21.365Z,61.71
2023-03-22T09:51:21.332Z,61.42
2023-03-22T09:52:21.402Z,59.39
2023-03-22T09:53:21.430Z,61.33
2023-03-22T09:54:21.594Z,62.81
2023-03-22T09:55:21.276Z,60.77
2023-03-22T09:56:21.313Z,62.45
2023-03-22T09:57:21.343Z,62.75
2023-03-22T09:58:21.334Z,61.10
2023-03-22T09:59:21.282Z,59.54
2023-03-22T10:00:21.513Z,58.59
2023-03-22T10:01:21.476Z,60.22
2023-03-22T10:02:21.479Z,63.26
2023-03-22T10:03:21.855Z,62.50
2023-03-22T10:04:21.250Z,60.53
2023-03-22T10:05:21.462Z,62.66
2023-03-22T10:06:21.254Z,65.69
2023-03-22T10:07:21.161Z,60.91
2023-03-22T10:08:21.279Z,60.83
2023-03-22T10:09:21.381Z,60.27
2023-03-22T10:10:22.067Z,61.60
2023-03-22T10:11:21.268Z,60.10
2023-03-22T10:12:21.252Z,60.73
2023-03-22T10:13:21.206Z,63.65
2023-03-22T10:14:21.135Z,62.09
2023-03-22T10:15:21.120Z,64.58
2023-03-22T10:16:21.174Z,62.42
2023-03-22T10:17:21.371Z,62.68
2023-03-22T10:18:21.148Z,61.12
2023-03-22T10:19:21.245Z,61.65
2023-03-22T10:20:21.054Z,62.09
2023-03-22T10:21:21.049Z,60.20
2023-03-22T10:22:21.055Z,61.17
2023-03-22T10:23:21.058Z,63.31
2023-03-22T10:24:21.872Z,64.59
2023-03-22T10:25:21.149Z,62.63
2023-03-22T10:26:20.994Z,61.72
2023-03-22T10:27:21.021Z,59.76
2023-03-22T10:28:21.003Z,61.41
2023-03-22T10:29:21.233Z,61.08
2023-03-22T10:30:21.047Z,65.75
2023-03-22T10:31:21.306Z,61.82
2023-03-22T10:32:20.929Z,60.47
2023-03-22T10:33:20.922Z,62.48
2023-03-22T10:34:21.017Z,61.92
2023-03-22T10:35:20.916Z,62.89
2023-03-22T10:36:21.049Z,62.94
2023-03-22T10:37:20.902Z,61.20
2023-03-22T10:38:20.918Z,62.08
2023-03-22T10:39:20.914Z,63.39
2023-03-22T10:40:20.851Z,62.41
2023-03-22T10:41:20.960Z,65.42
2023-03-22T10:42:20.845Z,63.19
2023-03-22T10:43:20.870Z,62.92
2023-03-22T10:44:20.900Z,62.81
2023-03-22T10:45:21.278Z,63.15
2023-03-22T10:46:20.843Z,63.46
2023-03-22T10:47:20.852Z,61.98
2023-03-22T10:48:20.915Z,63.97
2023-03-22T10:49:20.778Z,61.90
2023-03-22T10:50:20.742Z,62.14
2023-03-22T10:51:20.831Z,61.09
2023-03-22T10:52:20.799Z,60.95
2023-03-22T10:53:20.843Z,61.56
2023-03-22T10:54:20.734Z,61.95
2023-03-22T10:55:21.504Z,62.19
2023-03-22T10:56:20.705Z,61.32
2023-03-22T10:57:20.791Z,58.50
2023-03-22T10:58:20.776Z,62.06
2023-03-22T10:59:20.679Z,64.17
2023-03-22T11:00:21.020Z,64.05
2023-03-22T11:01:20.732Z,61.92
2023-03-22T11:02:20.727Z,61.69
2023-03-22T11:03:20.643Z,59.68
2023-03-22T11:04:20.644Z,61.99
2023-03-22T11:05:20.606Z,62.76
2023-03-22T11:06:20.629Z,66.31
2023-03-22T11:07:20.653Z,65.58
2023-03-22T11:08:20.642Z,65.17
2023-03-22T11:09:21.128Z,64.30
2023-03-22T11:10:20.585Z,64.80
2023-03-22T11:11:20.767Z,65.89
2023-03-22T11:12:20.578Z,62.33
2023-03-22T11:13:20.764Z,61.54
2023-03-22T11:14:20.691Z,62.67
2023-03-22T11:15:20.483Z,61.76
2023-03-22T11:16:20.538Z,62.70
2023-03-22T11:17:20.672Z,62.73
2023-03-22T11:18:20.694Z,62.78
2023-03-22T11:19:20.632Z,62.46
2023-03-22T11:20:21.366Z,63.21
2023-03-22T11:21:20.525Z,62.68
2023-03-22T11:22:20.445Z,65.20
2023-03-22T11:23:20.503Z,63.57
2023-03-22T11:24:20.409Z,64.10
2023-03-22T11:25:21.039Z,62.28
2023-03-22T11:26:20.535Z,61.52
2023-03-22T11:27:20.515Z,64.49
2023-03-22T11:28:20.662Z,64.46
2023-03-22T11:29:20.471Z,64.11
2023-03-22T11:30:20.444Z,63.32
2023-03-22T11:31:20.471Z,63.51
2023-03-22T11:32:20.453Z,62.68
2023-03-22T11:33:20.415Z,62.78
2023-03-22T11:34:20.362Z,61.49
2023-03-22T11:35:20.460Z,61.00
2023-03-22T11:36:20.338Z,61.34
2023-03-22T11:37:20.345Z,62.44
2023-03-22T11:38:20.339Z,60.92
2023-03-22T11:39:20.583Z,60.94
2023-03-22T11:40:20.317Z,61.59
2023-03-22T11:41:20.263Z,62.36
2023-03-22T11:42:20.246Z,61.84
2023-03-22T11:43:20.306Z,61.59
2023-03-22T11:44:20.244Z,61.97
2023-03-22T11:45:20.353Z,59.77
2023-03-22T11:46:20.285Z,60.68
2023-03-22T11:52:24.668Z,62.25
2023-03-22T11:53:24.478Z,63.45
2023-03-22T11:56:52.650Z,61.05
2023-03-22T11:57:52.614Z,59.73
2023-03-22T11:58:52.346Z,60.44
2023-03-22T11:59:52.179Z,64.42
2023-03-22T12:00:52.350Z,61.85
2023-03-22T12:01:52.414Z,63.57
2023-03-22T12:02:52.384Z,62.97
2023-03-22T12:07:37.288Z,62.01
2023-03-22T12:08:38.726Z,60.19
2023-03-22T12:09:38.978Z,62.37
2023-03-22T12:10:38.310Z,62.85
2023-03-22T12:11:38.248Z,63.77
2023-03-22T12:12:38.389Z,63.34
2023-03-22T12:13:38.418Z,59.66
2023-03-22T12:14:39.141Z,62.90
2023-03-22T12:15:38.439Z,63.97
2023-03-22T12:16:38.305Z,61.74
2023-03-22T12:17:38.332Z,63.50
2023-03-22T12:18:38.242Z,63.14
2023-03-22T12:19:38.330Z,62.40
2023-03-22T12:20:38.510Z,60.97
2023-03-22T12:21:38.298Z,62.86
2023-03-22T12:22:38.186Z,63.31
2023-03-22T12:23:38.260Z,63.11
2023-03-22T12:24:38.194Z,64.00
2023-03-22T12:25:38.291Z,63.26
2023-03-22T12:26:38.320Z,63.78
2023-03-22T12:27:38.192Z,63.35
2023-03-22T12:28:38.241Z,63.12
2023-03-22T12:29:38.227Z,61.57
2023-03-22T12:30:38.172Z,65.61
2023-03-22T12:31:38.213Z,64.45
2023-03-22T12:32:38.160Z,62.30
2023-03-22T12:33:38.154Z,60.76
2023-03-22T12:34:38.055Z,63.17
2023-03-22T12:35:38.293Z,64.02
2023-03-22T12:36:38.977Z,63.53
2023-03-22T12:37:38.159Z,60.75
2023-03-22T12:38:38.072Z,63.82
2023-03-22T12:39:38.080Z,64.00
2023-03-22T12:40:38.260Z,61.63
2023-03-22T12:41:38.019Z,61.56
2023-03-22T12:42:47.610Z,62.21
2023-03-22T12:43:39.119Z,60.77
2023-03-22T12:44:37.982Z,61.80
2023-03-22T12:45:38.295Z,63.17
2023-03-22T12:46:38.075Z,62.22
2023-03-22T12:47:38.103Z,63.63
2023-03-22T12:48:39.529Z,62.10
2023-03-22T12:49:38.137Z,62.16
2023-03-22T12:50:38.776Z,62.84
2023-03-22T12:51:37.854Z,59.44
2023-03-22T12:52:45.308Z,61.93
2023-03-22T12:53:38.890Z,61.23
2023-03-22T12:54:37.895Z,64.51
2023-03-22T12:55:37.949Z,64.02
2023-03-22T12:56:38.897Z,61.34
2023-03-22T12:57:38.330Z,61.68
2023-03-22T12:58:37.885Z,60.53
2023-03-22T12:59:38.073Z,63.03
2023-03-22T13:00:37.945Z,63.25
2023-03-22T13:01:38.110Z,63.18
2023-03-22T13:02:37.934Z,63.08
2023-03-22T13:03:38.297Z,62.52
2023-03-22T13:04:39.940Z,59.89
2023-03-22T13:05:37.930Z,63.64
2023-03-22T13:06:37.761Z,61.43
2023-03-22T13:07:37.835Z,62.42
2023-03-22T13:08:37.835Z,61.36
2023-03-22T13:09:37.875Z,62.17
2023-03-22T13:10:37.938Z,61.57
2023-03-22T13:11:37.806Z,62.38
2023-03-22T13:12:37.758Z,61.51
2023-03-22T13:13:37.740Z,62.03
2023-03-22T13:14:37.637Z,64.35
2023-03-22T13:15:42.188Z,63.35
2023-03-22T13:16:38.726Z,62.01
2023-03-22T13:17:37.873Z,61.81
2023-03-22T13:18:37.721Z,63.21
2023-03-22T13:19:37.669Z,61.84
2023-03-22T13:20:37.694Z,62.58
2023-03-22T13:21:38.359Z,60.83
2023-03-22T13:22:37.568Z,62.15
2023-03-22T13:23:37.911Z,60.36
2023-03-22T13:24:37.811Z,60.22
2023-03-22T13:25:38.065Z,60.51
2023-03-22T13:26:38.654Z,60.89
2023-03-22T13:27:37.796Z,62.22
2023-03-22T13:28:37.576Z,61.38
2023-03-22T13:29:37.523Z,61.56
2023-03-22T13:30:37.499Z,60.73